sensor_id;sensor_type;location;lat;lon;timestamp;temperature;humidity
23703;DHT22;12030;50.376;8.762;2023-05-09T00:00:04;14.50;99.90
23703;DHT22;12030;50.376;8.762;2023-05-09T00:02:31;14.50;99.90
23703;DHT22;12030;50.376;8.762;2023-05-09T00:04:59;14.50;99.90
23703;DHT22;12030;50.376;8.762;2023-05-09T00:07:28;14.50;99.90
23703;DHT22;12030;50.376;8.762;2023-05-09T00:09:53;14.50;99.90
23703;DHT22;12030;50.376;8.762;2023-05-09T00:12:19;14.50;99.90
23703;DHT22;12030;50.376;8.762;2023-05-09T00:14:44;14.50;99.90
23703;DHT22;12030;50.376;8.762;2023-05-09T00:17:12;14.50;99.90
23703;DHT22;12030;50.376;8.762;2023-05-09T00:19:38;14.50;99.90
23703;DHT22;12030;50.376;8.762;2023-05-09T00:22:04;14.50;99.90
23703;DHT22;12030;50.376;8.762;2023-05-09T00:24:30;14.50;99.90
23703;DHT22;12030;50.376;8.762;2023-05-09T00:26:55;14.50;99.90
23703;DHT22;12030;50.376;8.762;2023-05-09T00:29:21;14.60;99.90
23703;DHT22;12030;50.376;8.762;2023-05-09T00:31:46;14.50;99.90
23703;DHT22;12030;50.376;8.762;2023-05-09T00:34:12;14.50;99.90
23703;DHT22;12030;50.376;8.762;2023-05-09T00:36:37;14.50;99.90
23703;DHT22;12030;50.376;8.762;2023-05-09T00:39:02;14.50;99.90
23703;DHT22;12030;50.376;8.762;2023-05-09T00:41:28;14.50;99.90
23703;DHT22;12030;50.376;8.762;2023-05-09T00:43:53;14.50;99.90
23703;DHT22;12030;50.376;8.762;2023-05-09T00:46:20;14.50;99.90
23703;DHT22;12030;50.376;8.762;2023-05-09T00:48:45;14.50;99.90
23703;DHT22;12030;50.376;8.762;2023-05-09T00:51:11;14.50;99.90
23703;DHT22;12030;50.376;8.762;2023-05-09T00:53:37;14.50;99.90
23703;DHT22;12030;50.376;8.762;2023-05-09T00:56:03;14.50;99.90
23703;DHT22;12030;50.376;8.762;2023-05-09T00:58:29;14.50;99.90
23703;DHT22;12030;50.376;8.762;2023-05-09T01:00:54;14.50;99.90
23703;DHT22;12030;50.376;8.762;2023-05-09T01:03:20;14.50;99.90
23703;DHT22;12030;50.376;8.762;2023-05-09T01:05:53;14.50;99.90
23703;DHT22;12030;50.376;8.762;2023-05-09T01:13:51;14.50;99.90
23703;DHT22;12030;50.376;8.762;2023-05-09T01:16:37;14.50;99.90
23703;DHT22;12030;50.376;8.762;2023-05-09T01:19:17;14.50;99.90
23703;DHT22;12030;50.376;8.762;2023-05-09T01:21:48;14.50;99.90
23703;DHT22;12030;50.376;8.762;2023-05-09T01:24:32;14.40;99.90
23703;DHT22;12030;50.376;8.762;2023-05-09T01:29:53;14.50;99.90
23703;DHT22;12030;50.376;8.762;2023-05-09T01:32:26;14.50;99.90
23703;DHT22;12030;50.376;8.762;2023-05-09T01:34:54;14.50;99.90
23703;DHT22;12030;50.376;8.762;2023-05-09T01:37:28;14.50;99.90
23703;DHT22;12030;50.376;8.762;2023-05-09T01:39:59;14.50;99.90
23703;DHT22;12030;50.376;8.762;2023-05-09T01:42:38;14.50;99.90
23703;DHT22;12030;50.376;8.762;2023-05-09T01:45:06;14.50;99.90
23703;DHT22;12030;50.376;8.762;2023-05-09T01:47:32;14.50;99.90
23703;DHT22;12030;50.376;8.762;2023-05-09T01:50:00;14.50;99.90
23703;DHT22;12030;50.376;8.762;2023-05-09T01:52:28;14.40;99.90
23703;DHT22;12030;50.376;8.762;2023-05-09T01:54:54;14.40;99.90
23703;DHT22;12030;50.376;8.762;2023-05-09T01:57:21;14.50;99.90
23703;DHT22;12030;50.376;8.762;2023-05-09T01:59:47;14.40;99.90
23703;DHT22;12030;50.376;8.762;2023-05-09T02:02:13;14.40;99.90
23703;DHT22;12030;50.376;8.762;2023-05-09T02:04:40;14.40;99.90
23703;DHT22;12030;50.376;8.762;2023-05-09T02:07:07;14.40;99.90
23703;DHT22;12030;50.376;8.762;2023-05-09T02:09:33;14.40;99.90
23703;DHT22;12030;50.376;8.762;2023-05-09T02:11:59;14.40;99.90
23703;DHT22;12030;50.376;8.762;2023-05-09T02:14:24;14.40;99.90
23703;DHT22;12030;50.376;8.762;2023-05-09T02:16:50;14.40;99.90
23703;DHT22;12030;50.376;8.762;2023-05-09T02:19:16;14.40;99.90
23703;DHT22;12030;50.376;8.762;2023-05-09T02:21:42;14.30;99.90
23703;DHT22;12030;50.376;8.762;2023-05-09T02:24:07;14.40;99.90
23703;DHT22;12030;50.376;8.762;2023-05-09T02:26:33;14.40;99.90
23703;DHT22;12030;50.376;8.762;2023-05-09T02:29:01;14.40;99.90
23703;DHT22;12030;50.376;8.762;2023-05-09T02:31:28;14.30;99.90
23703;DHT22;12030;50.376;8.762;2023-05-09T02:33:55;14.20;99.90
23703;DHT22;12030;50.376;8.762;2023-05-09T02:36:22;14.10;99.90
23703;DHT22;12030;50.376;8.762;2023-05-09T02:38:48;14.20;99.90
23703;DHT22;12030;50.376;8.762;2023-05-09T02:41:14;14.10;99.90
23703;DHT22;12030;50.376;8.762;2023-05-09T02:43:40;14.10;99.90
23703;DHT22;12030;50.376;8.762;2023-05-09T02:46:07;14.00;99.90
23703;DHT22;12030;50.376;8.762;2023-05-09T02:48:32;13.90;99.90
23703;DHT22;12030;50.376;8.762;2023-05-09T02:50:58;13.80;99.90
23703;DHT22;12030;50.376;8.762;2023-05-09T02:53:24;13.70;99.90
23703;DHT22;12030;50.376;8.762;2023-05-09T02:55:49;13.70;99.90
23703;DHT22;12030;50.376;8.762;2023-05-09T02:58:15;13.60;99.90
23703;DHT22;12030;50.376;8.762;2023-05-09T03:00:41;13.60;99.90
23703;DHT22;12030;50.376;8.762;2023-05-09T03:03:07;13.50;99.90
23703;DHT22;12030;50.376;8.762;2023-05-09T03:05:32;13.50;99.90
23703;DHT22;12030;50.376;8.762;2023-05-09T03:07:58;13.30;99.90
23703;DHT22;12030;50.376;8.762;2023-05-09T03:10:23;13.30;99.90
23703;DHT22;12030;50.376;8.762;2023-05-09T03:12:49;13.20;99.90
23703;DHT22;12030;50.376;8.762;2023-05-09T03:15:15;13.20;99.90
23703;DHT22;12030;50.376;8.762;2023-05-09T03:17:40;13.10;99.90
23703;DHT22;12030;50.376;8.762;2023-05-09T03:20:06;13.00;99.90
23703;DHT22;12030;50.376;8.762;2023-05-09T03:22:32;13.00;99.90
23703;DHT22;12030;50.376;8.762;2023-05-09T03:24:58;12.90;99.90
23703;DHT22;12030;50.376;8.762;2023-05-09T03:27:23;12.90;99.90
23703;DHT22;12030;50.376;8.762;2023-05-09T03:29:50;12.90;99.90
23703;DHT22;12030;50.376;8.762;2023-05-09T03:32:16;12.80;99.90
23703;DHT22;12030;50.376;8.762;2023-05-09T03:34:41;12.70;99.90
23703;DHT22;12030;50.376;8.762;2023-05-09T03:37:07;12.50;99.90
23703;DHT22;12030;50.376;8.762;2023-05-09T03:39:32;12.40;99.90
23703;DHT22;12030;50.376;8.762;2023-05-09T03:41:58;12.30;99.90
23703;DHT22;12030;50.376;8.762;2023-05-09T03:44:24;12.30;99.90
23703;DHT22;12030;50.376;8.762;2023-05-09T03:46:50;12.40;99.90
23703;DHT22;12030;50.376;8.762;2023-05-09T03:49:15;12.40;99.90
23703;DHT22;12030;50.376;8.762;2023-05-09T03:51:41;12.40;99.90
23703;DHT22;12030;50.376;8.762;2023-05-09T03:54:06;12.50;99.90
23703;DHT22;12030;50.376;8.762;2023-05-09T03:56:32;12.50;99.90
23703;DHT22;12030;50.376;8.762;2023-05-09T03:58:57;12.50;99.90
23703;DHT22;12030;50.376;8.762;2023-05-09T04:01:23;12.50;99.90
23703;DHT22;12030;50.376;8.762;2023-05-09T04:03:48;12.50;99.90
23703;DHT22;12030;50.376;8.762;2023-05-09T04:06:16;12.50;99.90
23703;DHT22;12030;50.376;8.762;2023-05-09T04:08:42;12.50;99.90
23703;DHT22;12030;50.376;8.762;2023-05-09T04:11:07;12.50;99.90
23703;DHT22;12030;50.376;8.762;2023-05-09T04:13:33;12.50;99.90
23703;DHT22;12030;50.376;8.762;2023-05-09T04:15:58;12.50;99.90
23703;DHT22;12030;50.376;8.762;2023-05-09T04:18:24;12.50;99.90
23703;DHT22;12030;50.376;8.762;2023-05-09T04:20:50;12.50;99.90
23703;DHT22;12030;50.376;8.762;2023-05-09T04:23:15;12.40;99.90
23703;DHT22;12030;50.376;8.762;2023-05-09T04:25:41;12.40;99.90
23703;DHT22;12030;50.376;8.762;2023-05-09T04:28:06;12.40;99.90
23703;DHT22;12030;50.376;8.762;2023-05-09T04:30:32;12.50;99.90
23703;DHT22;12030;50.376;8.762;2023-05-09T04:32:58;12.50;99.90
23703;DHT22;12030;50.376;8.762;2023-05-09T04:35:23;12.50;99.90
23703;DHT22;12030;50.376;8.762;2023-05-09T04:37:50;12.60;99.90
23703;DHT22;12030;50.376;8.762;2023-05-09T04:40:16;12.70;99.90
23703;DHT22;12030;50.376;8.762;2023-05-09T04:42:41;12.80;99.90
23703;DHT22;12030;50.376;8.762;2023-05-09T04:45:08;12.80;99.90
23703;DHT22;12030;50.376;8.762;2023-05-09T04:47:36;12.80;99.90
23703;DHT22;12030;50.376;8.762;2023-05-09T04:50:01;12.80;99.90
23703;DHT22;12030;50.376;8.762;2023-05-09T04:52:27;12.90;99.90
23703;DHT22;12030;50.376;8.762;2023-05-09T04:54:52;13.00;99.90
23703;DHT22;12030;50.376;8.762;2023-05-09T04:57:18;13.20;99.90
23703;DHT22;12030;50.376;8.762;2023-05-09T04:59:43;13.30;99.90
23703;DHT22;12030;50.376;8.762;2023-05-09T05:02:09;13.40;99.90
23703;DHT22;12030;50.376;8.762;2023-05-09T05:04:35;13.50;99.90
23703;DHT22;12030;50.376;8.762;2023-05-09T05:07:00;13.70;99.90
23703;DHT22;12030;50.376;8.762;2023-05-09T05:09:26;13.70;99.90
23703;DHT22;12030;50.376;8.762;2023-05-09T05:11:51;13.80;99.90
23703;DHT22;12030;50.376;8.762;2023-05-09T05:14:17;13.90;99.90
23703;DHT22;12030;50.376;8.762;2023-05-09T05:16:42;14.00;99.90
23703;DHT22;12030;50.376;8.762;2023-05-09T05:19:08;14.10;99.90
23703;DHT22;12030;50.376;8.762;2023-05-09T05:21:33;14.20;99.90
23703;DHT22;12030;50.376;8.762;2023-05-09T05:23:59;14.30;99.90
23703;DHT22;12030;50.376;8.762;2023-05-09T05:26:24;14.40;99.90
23703;DHT22;12030;50.376;8.762;2023-05-09T05:28:50;14.50;99.90
23703;DHT22;12030;50.376;8.762;2023-05-09T05:31:20;14.60;99.90
23703;DHT22;12030;50.376;8.762;2023-05-09T05:33:45;14.80;99.90
23703;DHT22;12030;50.376;8.762;2023-05-09T05:36:11;14.90;99.90
23703;DHT22;12030;50.376;8.762;2023-05-09T05:38:36;14.90;99.90
23703;DHT22;12030;50.376;8.762;2023-05-09T05:41:02;15.00;99.90
23703;DHT22;12030;50.376;8.762;2023-05-09T05:43:27;15.00;99.90
23703;DHT22;12030;50.376;8.762;2023-05-09T05:45:53;15.10;99.90
23703;DHT22;12030;50.376;8.762;2023-05-09T05:48:18;15.20;99.90
23703;DHT22;12030;50.376;8.762;2023-05-09T05:50:44;15.30;99.90
23703;DHT22;12030;50.376;8.762;2023-05-09T05:53:10;15.50;99.90
23703;DHT22;12030;50.376;8.762;2023-05-09T05:55:35;15.50;99.90
23703;DHT22;12030;50.376;8.762;2023-05-09T05:58:01;15.50;99.90
23703;DHT22;12030;50.376;8.762;2023-05-09T06:00:26;15.60;99.90
23703;DHT22;12030;50.376;8.762;2023-05-09T06:02:52;15.70;99.90
23703;DHT22;12030;50.376;8.762;2023-05-09T06:05:18;15.80;99.90
23703;DHT22;12030;50.376;8.762;2023-05-09T06:07:43;15.90;99.90
23703;DHT22;12030;50.376;8.762;2023-05-09T06:10:10;15.90;99.90
23703;DHT22;12030;50.376;8.762;2023-05-09T06:12:35;15.80;99.90
23703;DHT22;12030;50.376;8.762;2023-05-09T06:15:01;15.90;99.90
23703;DHT22;12030;50.376;8.762;2023-05-09T06:17:30;15.90;99.90
23703;DHT22;12030;50.376;8.762;2023-05-09T06:19:55;16.00;99.90
23703;DHT22;12030;50.376;8.762;2023-05-09T06:22:21;16.10;99.90
23703;DHT22;12030;50.376;8.762;2023-05-09T06:24:46;16.20;99.90
23703;DHT22;12030;50.376;8.762;2023-05-09T06:27:12;16.40;99.90
23703;DHT22;12030;50.376;8.762;2023-05-09T06:29:38;16.50;99.90
23703;DHT22;12030;50.376;8.762;2023-05-09T06:32:03;16.60;99.90
23703;DHT22;12030;50.376;8.762;2023-05-09T06:34:29;16.70;99.90
23703;DHT22;12030;50.376;8.762;2023-05-09T06:36:55;16.80;99.90
23703;DHT22;12030;50.376;8.762;2023-05-09T06:39:20;16.90;99.90
23703;DHT22;12030;50.376;8.762;2023-05-09T06:41:45;16.80;99.90
23703;DHT22;12030;50.376;8.762;2023-05-09T06:44:11;16.90;99.90
23703;DHT22;12030;50.376;8.762;2023-05-09T06:46:36;17.00;99.90
23703;DHT22;12030;50.376;8.762;2023-05-09T06:49:02;17.00;99.90
23703;DHT22;12030;50.376;8.762;2023-05-09T06:51:27;17.10;99.90
23703;DHT22;12030;50.376;8.762;2023-05-09T06:53:53;17.10;99.90
23703;DHT22;12030;50.376;8.762;2023-05-09T06:56:19;17.10;99.90
23703;DHT22;12030;50.376;8.762;2023-05-09T06:58:47;17.10;99.90
23703;DHT22;12030;50.376;8.762;2023-05-09T07:01:13;17.00;99.90
23703;DHT22;12030;50.376;8.762;2023-05-09T07:03:38;17.10;99.90
23703;DHT22;12030;50.376;8.762;2023-05-09T07:06:04;17.10;99.90
23703;DHT22;12030;50.376;8.762;2023-05-09T07:08:29;17.00;99.90
23703;DHT22;12030;50.376;8.762;2023-05-09T07:10:55;17.20;99.90
23703;DHT22;12030;50.376;8.762;2023-05-09T07:13:20;17.20;99.90
23703;DHT22;12030;50.376;8.762;2023-05-09T07:15:46;17.30;99.90
23703;DHT22;12030;50.376;8.762;2023-05-09T07:18:11;17.50;99.90
23703;DHT22;12030;50.376;8.762;2023-05-09T07:20:37;17.60;99.90
23703;DHT22;12030;50.376;8.762;2023-05-09T07:23:03;17.60;99.90
23703;DHT22;12030;50.376;8.762;2023-05-09T07:25:28;17.70;99.90
23703;DHT22;12030;50.376;8.762;2023-05-09T07:27:54;17.80;99.90
23703;DHT22;12030;50.376;8.762;2023-05-09T07:30:20;17.80;99.90
23703;DHT22;12030;50.376;8.762;2023-05-09T07:32:45;17.80;99.90
23703;DHT22;12030;50.376;8.762;2023-05-09T07:35:11;17.90;99.90
23703;DHT22;12030;50.376;8.762;2023-05-09T07:37:36;18.00;99.90
23703;DHT22;12030;50.376;8.762;2023-05-09T07:40:02;18.10;99.90
23703;DHT22;12030;50.376;8.762;2023-05-09T07:42:30;18.40;99.90
23703;DHT22;12030;50.376;8.762;2023-05-09T07:44:57;18.70;99.90
23703;DHT22;12030;50.376;8.762;2023-05-09T07:47:23;18.90;99.90
23703;DHT22;12030;50.376;8.762;2023-05-09T07:49:49;18.80;99.90
23703;DHT22;12030;50.376;8.762;2023-05-09T07:52:15;18.90;99.90
23703;DHT22;12030;50.376;8.762;2023-05-09T07:54:45;19.00;99.90
23703;DHT22;12030;50.376;8.762;2023-05-09T07:57:10;19.00;99.90
23703;DHT22;12030;50.376;8.762;2023-05-09T07:59:36;19.00;99.90
23703;DHT22;12030;50.376;8.762;2023-05-09T08:02:01;19.10;99.90
23703;DHT22;12030;50.376;8.762;2023-05-09T08:04:27;19.00;99.90
23703;DHT22;12030;50.376;8.762;2023-05-09T08:06:52;18.90;99.90
23703;DHT22;12030;50.376;8.762;2023-05-09T08:09:18;19.00;99.90
23703;DHT22;12030;50.376;8.762;2023-05-09T08:11:44;19.10;99.90
23703;DHT22;12030;50.376;8.762;2023-05-09T08:14:10;19.20;99.90
23703;DHT22;12030;50.376;8.762;2023-05-09T08:16:35;19.20;99.90
23703;DHT22;12030;50.376;8.762;2023-05-09T08:19:01;19.40;99.90
23703;DHT22;12030;50.376;8.762;2023-05-09T08:21:27;19.50;99.90
23703;DHT22;12030;50.376;8.762;2023-05-09T08:23:52;19.50;99.90
23703;DHT22;12030;50.376;8.762;2023-05-09T08:26:18;19.60;99.90
23703;DHT22;12030;50.376;8.762;2023-05-09T08:28:43;19.40;99.90
23703;DHT22;12030;50.376;8.762;2023-05-09T08:31:09;19.30;99.90
23703;DHT22;12030;50.376;8.762;2023-05-09T08:33:35;19.30;99.90
23703;DHT22;12030;50.376;8.762;2023-05-09T08:36:00;19.30;99.90
23703;DHT22;12030;50.376;8.762;2023-05-09T08:38:26;19.20;99.90
23703;DHT22;12030;50.376;8.762;2023-05-09T08:40:58;19.20;99.90
23703;DHT22;12030;50.376;8.762;2023-05-09T08:43:25;19.30;99.90
23703;DHT22;12030;50.376;8.762;2023-05-09T08:45:55;19.30;99.90
23703;DHT22;12030;50.376;8.762;2023-05-09T08:48:23;19.30;99.90
23703;DHT22;12030;50.376;8.762;2023-05-09T08:50:49;19.40;99.90
23703;DHT22;12030;50.376;8.762;2023-05-09T08:53:15;19.50;99.90
23703;DHT22;12030;50.376;8.762;2023-05-09T08:55:40;19.50;99.90
23703;DHT22;12030;50.376;8.762;2023-05-09T08:58:07;19.40;99.90
23703;DHT22;12030;50.376;8.762;2023-05-09T09:00:34;19.40;99.90
23703;DHT22;12030;50.376;8.762;2023-05-09T09:03:02;19.50;99.90
23703;DHT22;12030;50.376;8.762;2023-05-09T09:05:30;19.60;99.90
23703;DHT22;12030;50.376;8.762;2023-05-09T09:07:57;19.50;99.90
23703;DHT22;12030;50.376;8.762;2023-05-09T09:10:25;19.50;99.90
23703;DHT22;12030;50.376;8.762;2023-05-09T09:12:53;19.50;99.90
23703;DHT22;12030;50.376;8.762;2023-05-09T09:15:22;19.40;99.90
23703;DHT22;12030;50.376;8.762;2023-05-09T09:17:50;19.70;99.90
23703;DHT22;12030;50.376;8.762;2023-05-09T09:20:17;20.00;99.90
23703;DHT22;12030;50.376;8.762;2023-05-09T09:22:47;20.10;99.90
23703;DHT22;12030;50.376;8.762;2023-05-09T09:25:12;20.20;99.90
23703;DHT22;12030;50.376;8.762;2023-05-09T09:27:38;20.40;99.90
23703;DHT22;12030;50.376;8.762;2023-05-09T09:30:08;20.50;99.90
23703;DHT22;12030;50.376;8.762;2023-05-09T09:32:34;20.40;99.90
23703;DHT22;12030;50.376;8.762;2023-05-09T09:35:07;20.50;99.90
23703;DHT22;12030;50.376;8.762;2023-05-09T09:37:38;20.50;99.90
23703;DHT22;12030;50.376;8.762;2023-05-09T09:40:10;20.50;99.90
23703;DHT22;12030;50.376;8.762;2023-05-09T09:42:41;20.50;99.90
23703;DHT22;12030;50.376;8.762;2023-05-09T09:45:11;20.20;99.90
23703;DHT22;12030;50.376;8.762;2023-05-09T09:47:38;20.10;99.90
23703;DHT22;12030;50.376;8.762;2023-05-09T09:50:17;20.20;99.90
23703;DHT22;12030;50.376;8.762;2023-05-09T09:52:54;20.10;99.90
23703;DHT22;12030;50.376;8.762;2023-05-09T09:55:24;20.10;99.90
23703;DHT22;12030;50.376;8.762;2023-05-09T09:57:51;20.20;99.90
23703;DHT22;12030;50.376;8.762;2023-05-09T10:00:34;20.30;99.90
23703;DHT22;12030;50.376;8.762;2023-05-09T10:03:00;20.30;99.90
23703;DHT22;12030;50.376;8.762;2023-05-09T10:05:28;20.30;99.90
23703;DHT22;12030;50.376;8.762;2023-05-09T10:07:58;20.30;99.90
23703;DHT22;12030;50.376;8.762;2023-05-09T10:10:26;20.30;99.90
23703;DHT22;12030;50.376;8.762;2023-05-09T10:12:55;20.30;99.90
23703;DHT22;12030;50.376;8.762;2023-05-09T10:15:21;20.30;99.90
23703;DHT22;12030;50.376;8.762;2023-05-09T10:17:55;20.30;99.90
23703;DHT22;12030;50.376;8.762;2023-05-09T10:20:21;20.10;99.90
23703;DHT22;12030;50.376;8.762;2023-05-09T10:22:48;20.10;99.90
23703;DHT22;12030;50.376;8.762;2023-05-09T10:25:19;20.30;99.90
23703;DHT22;12030;50.376;8.762;2023-05-09T10:27:47;20.40;99.90
23703;DHT22;12030;50.376;8.762;2023-05-09T10:33:01;20.20;99.90
23703;DHT22;12030;50.376;8.762;2023-05-09T10:35:32;20.30;99.90
23703;DHT22;12030;50.376;8.762;2023-05-09T10:38:00;20.10;99.90
23703;DHT22;12030;50.376;8.762;2023-05-09T10:40:30;20.10;99.90
23703;DHT22;12030;50.376;8.762;2023-05-09T10:42:56;20.20;99.90
23703;DHT22;12030;50.376;8.762;2023-05-09T10:45:22;20.20;99.90
23703;DHT22;12030;50.376;8.762;2023-05-09T10:47:51;20.10;99.90
23703;DHT22;12030;50.376;8.762;2023-05-09T10:50:18;20.20;99.90
23703;DHT22;12030;50.376;8.762;2023-05-09T11:00:45;20.20;99.90
23703;DHT22;12030;50.376;8.762;2023-05-09T11:03:11;20.30;99.90
23703;DHT22;12030;50.376;8.762;2023-05-09T11:05:40;20.30;99.90
23703;DHT22;12030;50.376;8.762;2023-05-09T11:10:43;20.40;99.90
23703;DHT22;12030;50.376;8.762;2023-05-09T11:13:09;20.50;99.90
23703;DHT22;12030;50.376;8.762;2023-05-09T11:15:35;20.40;99.90
23703;DHT22;12030;50.376;8.762;2023-05-09T11:18:14;20.40;99.90
23703;DHT22;12030;50.376;8.762;2023-05-09T11:20:44;20.40;99.90
23703;DHT22;12030;50.376;8.762;2023-05-09T11:23:10;20.50;99.90
23703;DHT22;12030;50.376;8.762;2023-05-09T11:25:38;20.50;99.90
23703;DHT22;12030;50.376;8.762;2023-05-09T11:28:04;20.50;99.90
23703;DHT22;12030;50.376;8.762;2023-05-09T11:30:41;20.60;99.90
23703;DHT22;12030;50.376;8.762;2023-05-09T11:33:21;20.80;99.90
23703;DHT22;12030;50.376;8.762;2023-05-09T11:36:17;20.80;99.90
23703;DHT22;12030;50.376;8.762;2023-05-09T11:38:44;20.80;99.90
23703;DHT22;12030;50.376;8.762;2023-05-09T11:41:10;20.60;99.90
23703;DHT22;12030;50.376;8.762;2023-05-09T11:43:37;20.40;99.90
23703;DHT22;12030;50.376;8.762;2023-05-09T11:46:03;20.30;99.90
23703;DHT22;12030;50.376;8.762;2023-05-09T11:48:29;20.60;99.90
23703;DHT22;12030;50.376;8.762;2023-05-09T11:50:55;20.90;99.90
23703;DHT22;12030;50.376;8.762;2023-05-09T11:53:20;21.10;99.90
23703;DHT22;12030;50.376;8.762;2023-05-09T11:55:46;21.30;99.90
23703;DHT22;12030;50.376;8.762;2023-05-09T11:58:12;21.30;99.90
23703;DHT22;12030;50.376;8.762;2023-05-09T12:00:47;21.40;99.90
23703;DHT22;12030;50.376;8.762;2023-05-09T12:03:13;21.50;99.90
23703;DHT22;12030;50.376;8.762;2023-05-09T12:05:39;21.50;99.90
23703;DHT22;12030;50.376;8.762;2023-05-09T12:08:05;21.50;99.90
23703;DHT22;12030;50.376;8.762;2023-05-09T12:10:31;21.30;99.90
23703;DHT22;12030;50.376;8.762;2023-05-09T12:12:57;21.30;99.90
23703;DHT22;12030;50.376;8.762;2023-05-09T12:15:23;21.20;99.90
23703;DHT22;12030;50.376;8.762;2023-05-09T12:18:02;21.30;99.90
23703;DHT22;12030;50.376;8.762;2023-05-09T12:20:42;21.50;99.90
23703;DHT22;12030;50.376;8.762;2023-05-09T12:23:09;21.70;99.90
23703;DHT22;12030;50.376;8.762;2023-05-09T12:25:35;21.80;99.90
23703;DHT22;12030;50.376;8.762;2023-05-09T12:28:01;21.90;99.90
23703;DHT22;12030;50.376;8.762;2023-05-09T12:30:27;21.90;99.90
23703;DHT22;12030;50.376;8.762;2023-05-09T12:32:53;22.10;99.90
23703;DHT22;12030;50.376;8.762;2023-05-09T12:35:20;22.30;99.90
23703;DHT22;12030;50.376;8.762;2023-05-09T12:38:19;22.30;99.90
23703;DHT22;12030;50.376;8.762;2023-05-09T12:40:47;22.20;99.90
23703;DHT22;12030;50.376;8.762;2023-05-09T12:43:13;22.20;99.90
23703;DHT22;12030;50.376;8.762;2023-05-09T12:45:38;22.30;99.90
23703;DHT22;12030;50.376;8.762;2023-05-09T12:48:04;22.30;99.90
23703;DHT22;12030;50.376;8.762;2023-05-09T12:50:31;22.20;99.90
23703;DHT22;12030;50.376;8.762;2023-05-09T12:53:00;22.20;99.90
23703;DHT22;12030;50.376;8.762;2023-05-09T12:55:26;22.00;99.90
23703;DHT22;12030;50.376;8.762;2023-05-09T12:58:00;21.90;99.90
23703;DHT22;12030;50.376;8.762;2023-05-09T13:00:26;21.80;99.90
23703;DHT22;12030;50.376;8.762;2023-05-09T13:02:52;21.70;99.90
23703;DHT22;12030;50.376;8.762;2023-05-09T13:05:19;21.70;99.90
23703;DHT22;12030;50.376;8.762;2023-05-09T13:07:46;21.80;99.90
23703;DHT22;12030;50.376;8.762;2023-05-09T13:10:17;21.80;99.90
23703;DHT22;12030;50.376;8.762;2023-05-09T13:12:45;21.90;99.90
23703;DHT22;12030;50.376;8.762;2023-05-09T13:15:13;22.10;99.90
23703;DHT22;12030;50.376;8.762;2023-05-09T13:17:39;22.20;99.90
23703;DHT22;12030;50.376;8.762;2023-05-09T13:20:05;22.30;99.90
23703;DHT22;12030;50.376;8.762;2023-05-09T13:22:31;22.20;99.90
23703;DHT22;12030;50.376;8.762;2023-05-09T13:24:57;22.30;99.90
23703;DHT22;12030;50.376;8.762;2023-05-09T13:27:23;22.70;99.90
23703;DHT22;12030;50.376;8.762;2023-05-09T13:29:48;22.80;99.90
23703;DHT22;12030;50.376;8.762;2023-05-09T13:32:14;22.80;99.90
23703;DHT22;12030;50.376;8.762;2023-05-09T13:34:40;22.80;99.90
23703;DHT22;12030;50.376;8.762;2023-05-09T13:37:05;22.90;99.90
23703;DHT22;12030;50.376;8.762;2023-05-09T13:39:31;23.00;99.90
23703;DHT22;12030;50.376;8.762;2023-05-09T13:41:56;23.00;99.90
23703;DHT22;12030;50.376;8.762;2023-05-09T13:44:22;23.30;99.90
23703;DHT22;12030;50.376;8.762;2023-05-09T13:46:51;23.60;99.90
23703;DHT22;12030;50.376;8.762;2023-05-09T13:49:16;24.10;99.90
23703;DHT22;12030;50.376;8.762;2023-05-09T13:51:43;24.60;99.90
23703;DHT22;12030;50.376;8.762;2023-05-09T13:54:09;24.40;99.90
23703;DHT22;12030;50.376;8.762;2023-05-09T13:56:43;24.40;99.90
23703;DHT22;12030;50.376;8.762;2023-05-09T13:59:09;24.40;99.90
23703;DHT22;12030;50.376;8.762;2023-05-09T14:01:35;24.20;99.90
23703;DHT22;12030;50.376;8.762;2023-05-09T14:04:00;24.00;99.90
23703;DHT22;12030;50.376;8.762;2023-05-09T14:06:26;23.90;99.90
23703;DHT22;12030;50.376;8.762;2023-05-09T14:08:54;23.70;99.90
23703;DHT22;12030;50.376;8.762;2023-05-09T14:11:19;23.60;99.90
23703;DHT22;12030;50.376;8.762;2023-05-09T14:13:45;23.50;99.90
23703;DHT22;12030;50.376;8.762;2023-05-09T14:16:11;23.20;99.90
23703;DHT22;12030;50.376;8.762;2023-05-09T14:18:37;23.00;99.90
23703;DHT22;12030;50.376;8.762;2023-05-09T14:21:02;22.80;99.90
23703;DHT22;12030;50.376;8.762;2023-05-09T14:23:28;22.70;99.90
23703;DHT22;12030;50.376;8.762;2023-05-09T14:25:53;22.60;99.90
23703;DHT22;12030;50.376;8.762;2023-05-09T14:28:19;22.60;99.90
23703;DHT22;12030;50.376;8.762;2023-05-09T14:30:44;22.50;99.90
23703;DHT22;12030;50.376;8.762;2023-05-09T14:33:10;22.50;99.90
23703;DHT22;12030;50.376;8.762;2023-05-09T14:35:35;22.40;99.90
23703;DHT22;12030;50.376;8.762;2023-05-09T14:38:01;22.20;99.90
23703;DHT22;12030;50.376;8.762;2023-05-09T14:40:27;22.10;99.90
23703;DHT22;12030;50.376;8.762;2023-05-09T14:42:59;21.90;99.90
23703;DHT22;12030;50.376;8.762;2023-05-09T14:45:30;21.80;99.90
23703;DHT22;12030;50.376;8.762;2023-05-09T14:47:57;21.80;99.90
23703;DHT22;12030;50.376;8.762;2023-05-09T14:50:23;21.70;99.90
23703;DHT22;12030;50.376;8.762;2023-05-09T14:52:49;21.60;99.90
23703;DHT22;12030;50.376;8.762;2023-05-09T14:55:19;21.50;99.90
23703;DHT22;12030;50.376;8.762;2023-05-09T14:57:45;21.50;99.90
23703;DHT22;12030;50.376;8.762;2023-05-09T15:00:11;21.20;99.90
23703;DHT22;12030;50.376;8.762;2023-05-09T15:02:38;21.20;99.90
23703;DHT22;12030;50.376;8.762;2023-05-09T15:05:04;21.30;99.90
23703;DHT22;12030;50.376;8.762;2023-05-09T15:07:30;21.20;99.90
23703;DHT22;12030;50.376;8.762;2023-05-09T15:09:56;21.10;99.90
23703;DHT22;12030;50.376;8.762;2023-05-09T15:12:21;21.10;99.90
23703;DHT22;12030;50.376;8.762;2023-05-09T15:14:47;20.90;99.90
23703;DHT22;12030;50.376;8.762;2023-05-09T15:17:12;20.80;99.90
23703;DHT22;12030;50.376;8.762;2023-05-09T15:19:38;20.70;99.90
23703;DHT22;12030;50.376;8.762;2023-05-09T15:22:06;20.70;99.90
23703;DHT22;12030;50.376;8.762;2023-05-09T15:24:33;20.70;99.90
23703;DHT22;12030;50.376;8.762;2023-05-09T15:26:58;20.80;99.90
23703;DHT22;12030;50.376;8.762;2023-05-09T15:29:24;20.70;99.90
23703;DHT22;12030;50.376;8.762;2023-05-09T15:31:50;20.70;99.90
23703;DHT22;12030;50.376;8.762;2023-05-09T15:34:15;20.60;99.90
23703;DHT22;12030;50.376;8.762;2023-05-09T15:36:41;20.60;99.90
23703;DHT22;12030;50.376;8.762;2023-05-09T15:39:07;20.60;99.90
23703;DHT22;12030;50.376;8.762;2023-05-09T15:41:32;20.60;99.90
23703;DHT22;12030;50.376;8.762;2023-05-09T15:43:58;20.60;99.90
23703;DHT22;12030;50.376;8.762;2023-05-09T15:46:23;20.60;99.90
23703;DHT22;12030;50.376;8.762;2023-05-09T15:48:49;20.70;99.90